createdAt,value
2022-11-08T05:17:38.597Z,99768.69
2022-11-08T05:20:24.749Z,99762.06
2022-11-08T05:23:09.647Z,99754.16
2022-11-08T05:25:40.197Z,99755.75
2022-11-08T05:28:06.735Z,99756.66
2022-11-08T05:30:33.149Z,99761.81
2022-11-08T05:32:59.610Z,99750.50
2022-11-08T05:35:26.122Z,99754.97
2022-11-08T05:37:52.611Z,99753.31
2022-11-08T05:40:19.093Z,99740.28
2022-11-08T05:42:45.520Z,99749.94
2022-11-08T05:45:12.014Z,99750.84
2022-11-08T05:47:43.998Z,99753.03
2022-11-08T05:50:12.381Z,99738.00
2022-11-08T05:52:48.998Z,99744.06
2022-11-08T05:55:15.583Z,99746.66
2022-11-08T05:57:43.584Z,99744.94
2022-11-08T06:00:11.816Z,99751.91
2022-11-08T06:02:38.908Z,99751.00
2022-11-08T06:05:06.802Z,99737.94
2022-11-08T06:07:33.656Z,99736.22
2022-11-08T06:10:00.301Z,99742.44
2022-11-08T06:12:30.857Z,99738.25
2022-11-08T06:14:57.391Z,99738.22
2022-11-08T06:17:26.249Z,99753.13
2022-11-08T06:19:56.713Z,99761.66
2022-11-08T06:22:26.289Z,99752.09
2022-11-08T06:24:52.840Z,99759.94
2022-11-08T06:27:19.319Z,99750.25
2022-11-08T06:29:45.797Z,99742.53
2022-11-08T06:32:12.269Z,99746.97
2022-11-08T06:34:38.783Z,99745.09
2022-11-08T06:37:05.485Z,99736.44
2022-11-08T06:39:32.042Z,99734.75
2022-11-08T06:41:59.132Z,99736.41
2022-11-08T06:44:25.753Z,99741.59
2022-11-08T06:46:55.605Z,99755.72
2022-11-08T06:49:23.811Z,99746.00
2022-11-08T06:51:51.538Z,99746.69
2022-11-08T06:54:21.081Z,99747.44
2022-11-08T06:56:49.991Z,99752.63
2022-11-08T06:59:16.535Z,99749.88
2022-11-08T07:01:45.586Z,99754.25
2022-11-08T07:04:12.462Z,99765.41
2022-11-08T07:06:38.921Z,99765.56
2022-11-08T07:09:05.364Z,99756.94
2022-11-08T07:11:31.840Z,99762.06
2022-11-08T07:13:58.310Z,99768.94
2022-11-08T07:16:24.795Z,99766.06
2022-11-08T07:18:52.214Z,99762.56
2022-11-08T07:21:18.810Z,99765.13
2022-11-08T07:23:45.264Z,99766.81
2022-11-08T07:27:01.463Z,99770.13
2022-11-08T07:29:27.926Z,99776.09
2022-11-08T07:31:57.295Z,99773.25
2022-11-08T07:35:22.629Z,99777.50
2022-11-08T07:38:15.732Z,99778.91
2022-11-08T07:40:44.311Z,99776.25
2022-11-08T07:43:12.578Z,99781.34
2022-11-08T07:45:40.401Z,99784.81
2022-11-08T07:48:32.798Z,99785.53
2022-11-08T07:50:59.411Z,99792.19
2022-11-08T07:53:25.955Z,99792.84
2022-11-08T07:55:53.230Z,99798.91
2022-11-08T07:58:19.703Z,99796.13
2022-11-08T08:00:51.717Z,99794.31
2022-11-08T08:03:45.274Z,99802.94
2022-11-08T08:06:11.706Z,99792.34
2022-11-08T08:08:39.110Z,99801.25
2022-11-08T08:11:05.728Z,99792.16
2022-11-08T08:13:32.204Z,99797.25
2022-11-08T08:16:00.727Z,99796.28
2022-11-08T08:18:28.627Z,99797.84
2022-11-08T08:20:55.129Z,99795.28
2022-11-08T08:23:21.887Z,99787.22
2022-11-08T08:25:48.405Z,99799.31
2022-11-08T08:28:14.851Z,99794.03
2022-11-08T08:30:41.392Z,99787.75
2022-11-08T08:33:27.844Z,99786.03
2022-11-08T08:36:27.099Z,99790.84
2022-11-08T08:38:54.578Z,99791.59
2022-11-08T08:41:25.974Z,99786.13
2022-11-08T08:44:01.863Z,99785.06
2022-11-08T08:46:32.991Z,99790.56
2022-11-08T08:49:29.452Z,99788.63
2022-11-08T08:51:55.946Z,99785.09
2022-11-08T08:54:25.655Z,99793.97
2022-11-08T08:56:55.772Z,99795.38
2022-11-08T09:02:14.678Z,99800.56
2022-11-08T09:04:42.217Z,99803.06
2022-11-08T09:07:35.223Z,99803.31
2022-11-08T09:10:01.746Z,99805.59
2022-11-08T09:12:28.643Z,99806.31
2022-11-08T09:14:55.370Z,99800.84
2022-11-08T09:17:27.227Z,99804.16
2022-11-08T09:19:57.207Z,99801.81
2022-11-08T09:22:24.227Z,99801.31
2022-11-08T09:25:26.913Z,99797.63
2022-11-08T09:27:54.493Z,99801.16
2022-11-08T09:30:20.969Z,99796.94
2022-11-08T09:33:00.164Z,99790.75
2022-11-08T09:35:27.602Z,99787.34
2022-11-08T09:37:54.487Z,99787.13
2022-11-08T09:41:24.766Z,99792.56
2022-11-08T09:44:21.670Z,99785.09
2022-11-08T09:46:54.582Z,99785.25
2022-11-08T09:49:25.497Z,99777.06
2022-11-08T09:51:52.356Z,99785.34
2022-11-08T09:54:31.785Z,99800.97
2022-11-08T09:57:04.341Z,99799.09
2022-11-08T09:59:44.953Z,99795.72
2022-11-08T10:02:23.776Z,99790.88
2022-11-08T10:04:59.653Z,99780.75
2022-11-08T10:08:03.229Z,99773.41
2022-11-08T10:10:47.839Z,99773.66
2022-11-08T10:13:36.207Z,99782.00
2022-11-08T10:16:34.155Z,99772.91
2022-11-08T10:19:34.732Z,99768.53
2022-11-08T10:22:27.671Z,99765.13
2022-11-08T10:25:01.712Z,99762.25
2022-11-08T10:27:34.116Z,99758.63
2022-11-08T10:30:05.098Z,99765.50
2022-11-08T10:32:34.594Z,99775.63
2022-11-08T10:35:25.224Z,99771.69
2022-11-08T10:37:56.001Z,99767.47
2022-11-08T10:44:42.700Z,99771.97
2022-11-08T10:47:24.491Z,99779.72
2022-11-08T10:49:52.233Z,99770.53
2022-11-08T10:52:31.110Z,99767.22
2022-11-08T10:54:59.496Z,99764.53
2022-11-08T10:57:50.987Z,99764.72
2022-11-08T11:00:20.484Z,99762.09
2022-11-08T11:02:51.241Z,99761.22
2022-11-08T11:05:23.715Z,99762.19
2022-11-08T11:07:56.228Z,99751.78
2022-11-08T11:10:38.953Z,99745.94
2022-11-08T11:13:11.387Z,99756.66
2022-11-08T11:15:52.367Z,99747.63
2022-11-08T11:18:34.073Z,99742.16
2022-11-08T11:21:05.059Z,99737.94
2022-11-08T11:23:43.957Z,99737.81
2022-11-08T11:33:59.601Z,99723.91
2022-11-08T11:36:30.243Z,99730.91
2022-11-08T11:39:22.271Z,99717.53
2022-11-08T11:42:05.311Z,99721.25
2022-11-08T11:44:58.265Z,99717.94
2022-11-08T11:47:35.231Z,99724.06
2022-11-08T11:50:12.498Z,99714.41
2022-11-08T11:52:40.007Z,99710.69
2022-11-08T11:55:07.189Z,99706.72
2022-11-08T11:57:51.147Z,99702.13
2022-11-08T12:00:17.974Z,99709.47
2022-11-08T12:02:54.186Z,99695.19
2022-11-08T12:05:36.021Z,99694.34
2022-11-08T12:08:35.910Z,99697.44
2022-11-08T12:11:24.077Z,99686.63
2022-11-08T12:14:19.398Z,99685.38
2022-11-08T12:16:53.517Z,99680.44
2022-11-08T12:19:29.990Z,99688.59
2022-11-08T12:22:07.598Z,99687.03
2022-11-08T12:24:46.376Z,99678.41
2022-11-08T12:27:36.417Z,99687.66
2022-11-08T12:30:15.607Z,99679.88
2022-11-08T12:32:52.205Z,99679.16
2022-11-08T12:35:38.804Z,99671.84
2022-11-08T12:38:34.313Z,99670.44
2022-11-08T12:41:07.816Z,99673.00
2022-11-08T12:43:43.461Z,99677.19
2022-11-08T12:46:13.141Z,99666.31
2022-11-08T12:48:58.683Z,99655.56
2022-11-08T12:51:55.588Z,99656.31
2022-11-08T12:54:29.589Z,99660.03
2022-11-08T12:57:01.364Z,99653.28
2022-11-08T12:59:48.481Z,99650.44
2022-11-08T13:02:25.882Z,99641.13
2022-11-08T13:04:56.067Z,99645.97
2022-11-08T13:07:48.520Z,99644.06
2022-11-08T13:10:34.592Z,99639.56
2022-11-08T13:13:22.895Z,99630.31
2022-11-08T13:16:16.185Z,99633.03
2022-11-08T13:18:53.508Z,99624.28
2022-11-08T13:21:25.902Z,99611.63
2022-11-08T13:24:09.889Z,99624.06
2022-11-08T13:26:44.597Z,99616.91
2022-11-08T13:29:13.583Z,99624.06
2022-11-08T13:32:17.831Z,99626.00
2022-11-08T13:34:50.292Z,99621.09
2022-11-08T13:37:48.301Z,99617.44
2022-11-08T13:40:40.183Z,99611.72
2022-11-08T13:43:25.014Z,99620.56
2022-11-08T13:45:55.323Z,99622.69
2022-11-08T13:48:25.263Z,99622.94
2022-11-08T13:50:56.670Z,99626.16
2022-11-08T13:53:29.207Z,99626.25
2022-11-08T13:56:23.654Z,99627.91
2022-11-08T13:58:50.161Z,99627.28
2022-11-08T14:01:22.972Z,99623.44
2022-11-08T14:03:54.457Z,99616.13
2022-11-08T14:06:43.185Z,99609.78
2022-11-08T14:09:41.970Z,99616.28
2022-11-08T14:12:33.532Z,99611.47
2022-11-08T14:15:18.835Z,99611.63
2022-11-08T14:18:04.475Z,99607.47
2022-11-08T14:20:34.989Z,99608.56
2022-11-08T14:23:23.862Z,99616.41
2022-11-08T14:25:56.869Z,99617.28
2022-11-08T14:28:29.151Z,99609.94
2022-11-08T14:35:55.371Z,99616.16
2022-11-08T14:38:30.640Z,99606.25
2022-11-08T14:41:02.609Z,99600.72
2022-11-08T14:43:29.742Z,99596.22
2022-11-08T14:46:30.502Z,99592.50
2022-11-08T14:48:58.057Z,99590.63
2022-11-08T14:51:25.976Z,99597.78
2022-11-08T14:53:54.928Z,99589.84
2022-11-08T14:56:26.629Z,99586.81
2022-11-08T14:58:54.968Z,99590.03
2022-11-08T15:01:27.564Z,99589.81
2022-11-08T15:04:04.429Z,99586.00
2022-11-08T15:06:42.066Z,99592.78
2022-11-08T15:09:17.590Z,99584.75
2022-11-08T15:11:55.230Z,99590.59
2022-11-08T15:14:24.462Z,99591.63
2022-11-08T15:16:57.460Z,99584.94
2022-11-08T15:19:46.413Z,99589.81
2022-11-08T15:22:25.716Z,99587.66
2022-11-08T15:25:20.102Z,99588.34
2022-11-08T15:27:54.569Z,99589.06
2022-11-08T15:30:30.217Z,99583.00
2022-11-08T15:32:58.018Z,99589.28
2022-11-08T15:35:32.099Z,99574.44
2022-11-08T15:38:02.246Z,99569.41
2022-11-08T15:40:32.041Z,99563.88
2022-11-08T15:43:00.056Z,99564.56
2022-11-08T15:45:33.193Z,99575.13
2022-11-08T15:48:13.171Z,99575.16
2022-11-08T15:50:39.717Z,99579.09
2022-11-08T15:53:06.616Z,99577.63
2022-11-08T15:55:48.673Z,99577.47
2022-11-08T15:58:20.371Z,99575.31
2022-11-08T16:00:58.061Z,99580.91
2022-11-08T16:03:24.735Z,99571.94
2022-11-08T16:05:51.463Z,99578.44
2022-11-08T16:08:20.454Z,99581.09
2022-11-08T16:10:58.695Z,99575.53
2022-11-08T16:13:31.605Z,99580.22
2022-11-08T16:15:59.363Z,99580.47
2022-11-08T16:18:26.516Z,99571.16
2022-11-08T16:20:53.361Z,99577.06
2022-11-08T16:23:23.000Z,99583.03
2022-11-08T16:26:07.590Z,99584.75
2022-11-08T16:28:53.898Z,99590.66
2022-11-08T16:31:28.641Z,99572.88
2022-11-08T16:34:02.174Z,99577.28
2022-11-08T16:36:29.160Z,99571.53
2022-11-08T16:38:57.684Z,99562.41
2022-11-08T16:41:26.073Z,99565.91
2022-11-08T16:43:52.814Z,99557.06
2022-11-08T16:46:21.359Z,99556.16
2022-11-08T16:48:56.695Z,99559.94
2022-11-08T16:51:25.363Z,99560.28
2022-11-08T16:53:52.759Z,99557.94
2022-11-08T16:56:28.793Z,99558.34
2022-11-08T16:59:16.856Z,99554.13
2022-11-08T17:01:47.878Z,99559.41
2022-11-08T17:04:14.623Z,99558.00
2022-11-08T17:11:05.994Z,99562.94
2022-11-08T17:13:37.544Z,99568.91
2022-11-08T17:16:09.641Z,99567.75
2022-11-08T17:18:36.143Z,99556.91
2022-11-08T17:21:29.942Z,99555.84
2022-11-08T17:23:54.688Z,99550.72
2022-11-08T17:26:21.554Z,99563.91
2022-11-08T17:28:48.047Z,99560.75
2022-11-08T17:31:17.291Z,99566.50
2022-11-08T17:33:43.849Z,99564.22
2022-11-08T17:36:13.450Z,99564.88
2022-11-08T17:38:41.719Z,99567.66
2022-11-08T17:41:11.887Z,99566.97
2022-11-08T17:43:39.298Z,99571.13
2022-11-08T17:46:06.173Z,99574.22
2022-11-08T17:48:33.386Z,99579.97
2022-11-08T17:51:00.894Z,99583.31
2022-11-08T17:53:27.900Z,99578.91
2022-11-08T17:55:57.252Z,99579.75
2022-11-08T17:58:24.218Z,99580.50
2022-11-08T18:00:55.304Z,99580.28
2022-11-08T18:03:22.832Z,99583.03
2022-11-08T18:05:54.207Z,99587.31
2022-11-08T18:08:26.518Z,99579.41
2022-11-08T18:10:54.406Z,99587.47
2022-11-08T18:13:21.717Z,99589.91
2022-11-08T18:15:49.832Z,99588.31
2022-11-08T18:18:16.944Z,99589.25
2022-11-08T18:20:43.537Z,99589.56
2022-11-08T18:23:22.762Z,99591.38
2022-11-08T18:25:50.417Z,99592.34
2022-11-08T18:28:17.433Z,99586.34
2022-11-08T18:30:47.872Z,99582.53
2022-11-08T18:33:15.805Z,99586.53
2022-11-08T18:35:43.518Z,99585.22
2022-11-08T18:38:11.070Z,99581.66
2022-11-08T18:40:37.587Z,99583.38
2022-11-08T18:43:04.159Z,99574.63
2022-11-08T18:45:30.878Z,99575.66
2022-11-08T18:47:57.326Z,99570.47
2022-11-08T18:50:23.802Z,99573.03
2022-11-08T18:52:50.392Z,99579.47
2022-11-08T18:55:20.156Z,99578.91
2022-11-08T18:57:46.682Z,99580.41
2022-11-08T19:00:13.553Z,99569.09
2022-11-08T19:02:39.976Z,99568.94
2022-11-08T19:05:09.075Z,99557.81
2022-11-08T19:07:35.583Z,99563.41
2022-11-08T19:10:02.099Z,99572.31
2022-11-08T19:12:31.647Z,99581.25
2022-11-08T19:14:58.173Z,99571.63
2022-11-08T19:17:25.748Z,99578.56
2022-11-08T19:19:52.245Z,99578.09
2022-11-08T19:22:18.698Z,99575.41
2022-11-08T19:24:45.126Z,99574.63
2022-11-08T19:27:17.903Z,99577.25
2022-11-08T19:29:44.449Z,99583.50
2022-11-08T19:32:11.017Z,99581.91
2022-11-08T19:34:37.580Z,99571.38
2022-11-08T19:37:07.540Z,99575.91
2022-11-08T19:39:34.109Z,99568.13
2022-11-08T19:42:00.635Z,99569.38
2022-11-08T19:44:27.344Z,99561.94
2022-11-08T19:46:53.915Z,99560.34
2022-11-08T19:49:35.482Z,99558.16
2022-11-08T19:52:04.066Z,99568.63
2022-11-08T19:54:30.585Z,99571.75
2022-11-08T19:57:05.746Z,99565.72
2022-11-08T19:59:32.835Z,99569.78
2022-11-08T20:01:59.920Z,99562.22
2022-11-08T20:04:26.660Z,99566.28
2022-11-08T20:06:53.241Z,99567.72
2022-11-08T20:09:19.889Z,99567.72
2022-11-08T20:11:55.593Z,99570.03
2022-11-08T20:14:22.119Z,99580.69
2022-11-08T20:16:53.256Z,99580.81
2022-11-08T20:19:20.576Z,99582.34
2022-11-08T20:21:47.210Z,99583.84
2022-11-08T20:24:15.003Z,99583.53
2022-11-08T20:26:42.351Z,99583.53
2022-11-08T20:29:12.423Z,99577.28
2022-11-08T20:31:42.280Z,99583.16
2022-11-08T20:34:11.728Z,99575.81
2022-11-08T20:36:38.967Z,99577.41
2022-11-08T20:39:07.663Z,99579.22
2022-11-08T20:41:36.924Z,99575.78
2022-11-08T20:44:03.630Z,99581.88
2022-11-08T20:46:32.295Z,99579.53
2022-11-08T20:49:00.646Z,99583.16
2022-11-08T20:51:28.559Z,99584.66
2022-11-08T20:53:56.360Z,99589.97
2022-11-08T20:56:23.671Z,99593.47
2022-11-08T20:58:51.599Z,99596.31
2022-11-08T21:01:20.824Z,99592.50
2022-11-08T21:03:48.117Z,99589.22
2022-11-08T21:06:17.606Z,99595.28
2022-11-08T21:11:34.299Z,99604.00
2022-11-08T21:14:01.471Z,99609.00
2022-11-08T21:16:31.638Z,99615.81
2022-11-08T21:19:01.817Z,99616.91
2022-11-08T21:21:28.629Z,99616.50
2022-11-08T21:23:55.231Z,99612.56
2022-11-08T21:26:50.254Z,99610.38
2022-11-08T21:29:16.840Z,99610.94
2022-11-08T21:31:43.504Z,99614.56
2022-11-08T21:34:10.046Z,99609.16
2022-11-08T21:36:36.487Z,99608.22
2022-11-08T21:39:03.082Z,99609.06
2022-11-08T21:41:29.569Z,99617.19
2022-11-08T21:43:56.079Z,99620.88
2022-11-08T21:46:25.218Z,99617.94
2022-11-08T21:48:59.570Z,99623.50
2022-11-08T21:51:26.718Z,99614.66
2022-11-08T21:53:55.690Z,99620.28
2022-11-08T21:56:29.255Z,99619.50
2022-11-08T21:58:56.233Z,99617.59
2022-11-08T22:01:28.570Z,99618.91
2022-11-08T22:03:56.798Z,99612.13
2022-11-08T22:06:50.495Z,99606.34
2022-11-08T22:09:17.189Z,99606.28
2022-11-08T22:11:43.754Z,99616.16
2022-11-08T22:14:10.254Z,99612.47
2022-11-08T22:16:36.691Z,99613.19
2022-11-08T22:19:05.224Z,99607.66
2022-11-08T22:21:40.498Z,99606.22
2022-11-08T22:24:13.429Z,99609.38
2022-11-08T22:26:41.161Z,99605.75
2022-11-08T22:29:07.717Z,99611.91
2022-11-08T22:31:34.534Z,99614.66
2022-11-08T22:34:01.159Z,99612.81
2022-11-08T22:36:27.910Z,99611.03
2022-11-08T22:38:55.090Z,99613.94
2022-11-08T22:41:22.571Z,99618.63
2022-11-08T22:43:49.788Z,99614.03
2022-11-08T22:46:17.085Z,99613.81
2022-11-08T22:48:43.582Z,99612.88
2022-11-08T22:51:10.627Z,99606.13
2022-11-08T22:53:37.143Z,99604.31
2022-11-08T22:56:09.849Z,99606.81
2022-11-08T22:58:38.361Z,99604.47
